sensor_id;sensor_type;location;lat;lon;timestamp;P1;P2;P0
57411;PMS5003;43247;52.828;-8.980;2023-09-19T00:00:45;2;2;
57411;PMS5003;43247;52.828;-8.980;2023-09-19T00:01:45;3;2;
57411;PMS5003;43247;52.828;-8.980;2023-09-19T00:02:46;3;3;
57411;PMS5003;43247;52.828;-8.980;2023-09-19T00:03:45;5;4;
57411;PMS5003;43247;52.828;-8.980;2023-09-19T00:04:45;6;5;
57411;PMS5003;43247;52.828;-8.980;2023-09-19T00:05:46;7;5;
57411;PMS5003;43247;52.828;-8.980;2023-09-19T00:06:46;3;3;
57411;PMS5003;43247;52.828;-8.980;2023-09-19T00:07:46;7;6;
57411;PMS5003;43247;52.828;-8.980;2023-09-19T00:08:46;4;4;
57411;PMS5003;43247;52.828;-8.980;2023-09-19T00:09:46;6;6;
57411;PMS5003;43247;52.828;-8.980;2023-09-19T00:10:46;7;5;
57411;PMS5003;43247;52.828;-8.980;2023-09-19T00:11:47;5;5;
57411;PMS5003;43247;52.828;-8.980;2023-09-19T00:12:47;7;5;
57411;PMS5003;43247;52.828;-8.980;2023-09-19T00:13:47;5;5;
57411;PMS5003;43247;52.828;-8.980;2023-09-19T00:14:47;6;6;
57411;PMS5003;43247;52.828;-8.980;2023-09-19T00:15:47;5;5;
57411;PMS5003;43247;52.828;-8.980;2023-09-19T00:16:47;9;6;
57411;PMS5003;43247;52.828;-8.980;2023-09-19T00:17:48;6;6;
57411;PMS5003;43247;52.828;-8.980;2023-09-19T00:18:49;3;3;
57411;PMS5003;43247;52.828;-8.980;2023-09-19T00:19:49;6;6;
57411;PMS5003;43247;52.828;-8.980;2023-09-19T00:20:49;5;5;
57411;PMS5003;43247;52.828;-8.980;2023-09-19T00:21:49;5;4;
57411;PMS5003;43247;52.828;-8.980;2023-09-19T00:22:50;6;5;
57411;PMS5003;43247;52.828;-8.980;2023-09-19T00:23:50;7;7;
57411;PMS5003;43247;52.828;-8.980;2023-09-19T00:24:50;6;5;
57411;PMS5003;43247;52.828;-8.980;2023-09-19T00:25:51;7;7;
57411;PMS5003;43247;52.828;-8.980;2023-09-19T00:26:51;5;5;
57411;PMS5003;43247;52.828;-8.980;2023-09-19T00:27:51;7;6;
57411;PMS5003;43247;52.828;-8.980;2023-09-19T00:28:52;6;5;
57411;PMS5003;43247;52.828;-8.980;2023-09-19T00:29:51;4;4;
57411;PMS5003;43247;52.828;-8.980;2023-09-19T00:30:52;9;9;
57411;PMS5003;43247;52.828;-8.980;2023-09-19T00:31:52;8;4;
57411;PMS5003;43247;52.828;-8.980;2023-09-19T00:32:52;9;8;
57411;PMS5003;43247;52.828;-8.980;2023-09-19T00:33:53;9;8;
57411;PMS5003;43247;52.828;-8.980;2023-09-19T00:34:53;7;7;
57411;PMS5003;43247;52.828;-8.980;2023-09-19T00:35:54;9;6;
57411;PMS5003;43247;52.828;-8.980;2023-09-19T00:36:54;7;7;
57411;PMS5003;43247;52.828;-8.980;2023-09-19T00:37:55;6;6;
57411;PMS5003;43247;52.828;-8.980;2023-09-19T00:38:55;11;8;
57411;PMS5003;43247;52.828;-8.980;2023-09-19T00:39:55;5;4;
57411;PMS5003;43247;52.828;-8.980;2023-09-19T00:40:55;8;8;
57411;PMS5003;43247;52.828;-8.980;2023-09-19T00:41:55;5;5;
57411;PMS5003;43247;52.828;-8.980;2023-09-19T00:42:57;9;7;
57411;PMS5003;43247;52.828;-8.980;2023-09-19T00:43:55;8;8;
57411;PMS5003;43247;52.828;-8.980;2023-09-19T00:44:56;13;10;
57411;PMS5003;43247;52.828;-8.980;2023-09-19T00:45:56;6;6;
57411;PMS5003;43247;52.828;-8.980;2023-09-19T00:46:57;7;6;
57411;PMS5003;43247;52.828;-8.980;2023-09-19T00:47:57;6;6;
57411;PMS5003;43247;52.828;-8.980;2023-09-19T00:48:57;7;7;
57411;PMS5003;43247;52.828;-8.980;2023-09-19T00:49:57;9;9;
57411;PMS5003;43247;52.828;-8.980;2023-09-19T00:50:59;8;7;
57411;PMS5003;43247;52.828;-8.980;2023-09-19T00:51:58;10;9;
57411;PMS5003;43247;52.828;-8.980;2023-09-19T00:52:58;8;5;
57411;PMS5003;43247;52.828;-8.980;2023-09-19T00:53:59;7;6;
57411;PMS5003;43247;52.828;-8.980;2023-09-19T00:54:59;7;6;
57411;PMS5003;43247;52.828;-8.980;2023-09-19T00:55:59;6;5;
57411;PMS5003;43247;52.828;-8.980;2023-09-19T00:56:59;7;6;
57411;PMS5003;43247;52.828;-8.980;2023-09-19T00:58:00;6;6;
57411;PMS5003;43247;52.828;-8.980;2023-09-19T00:59:00;9;9;
57411;PMS5003;43247;52.828;-8.980;2023-09-19T01:00:03;9;8;
57411;PMS5003;43247;52.828;-8.980;2023-09-19T01:01:03;8;8;
57411;PMS5003;43247;52.828;-8.980;2023-09-19T01:02:03;8;6;
57411;PMS5003;43247;52.828;-8.980;2023-09-19T01:03:04;5;5;
57411;PMS5003;43247;52.828;-8.980;2023-09-19T01:04:04;8;6;
57411;PMS5003;43247;52.828;-8.980;2023-09-19T01:05:04;7;6;
57411;PMS5003;43247;52.828;-8.980;2023-09-19T01:06:04;9;8;
57411;PMS5003;43247;52.828;-8.980;2023-09-19T01:07:04;9;7;
57411;PMS5003;43247;52.828;-8.980;2023-09-19T01:08:04;9;8;
57411;PMS5003;43247;52.828;-8.980;2023-09-19T01:09:05;6;4;
57411;PMS5003;43247;52.828;-8.980;2023-09-19T01:10:06;9;7;
57411;PMS5003;43247;52.828;-8.980;2023-09-19T01:11:14;7;7;
57411;PMS5003;43247;52.828;-8.980;2023-09-19T01:12:06;9;7;
57411;PMS5003;43247;52.828;-8.980;2023-09-19T01:13:08;6;3;
57411;PMS5003;43247;52.828;-8.980;2023-09-19T01:14:12;10;7;
57411;PMS5003;43247;52.828;-8.980;2023-09-19T01:15:10;8;5;
57411;PMS5003;43247;52.828;-8.980;2023-09-19T01:16:08;4;4;
57411;PMS5003;43247;52.828;-8.980;2023-09-19T01:17:09;7;5;
57411;PMS5003;43247;52.828;-8.980;2023-09-19T01:18:11;4;4;
57411;PMS5003;43247;52.828;-8.980;2023-09-19T01:19:12;5;5;
57411;PMS5003;43247;52.828;-8.980;2023-09-19T01:20:11;6;6;
57411;PMS5003;43247;52.828;-8.980;2023-09-19T01:21:11;8;8;
57411;PMS5003;43247;52.828;-8.980;2023-09-19T01:22:10;7;5;
57411;PMS5003;43247;52.828;-8.980;2023-09-19T01:23:11;8;7;
57411;PMS5003;43247;52.828;-8.980;2023-09-19T01:26:11;5;4;
57411;PMS5003;43247;52.828;-8.980;2023-09-19T01:28:16;5;5;
57411;PMS5003;43247;52.828;-8.980;2023-09-19T01:29:17;8;6;
57411;PMS5003;43247;52.828;-8.980;2023-09-19T01:30:10;4;3;
57411;PMS5003;43247;52.828;-8.980;2023-09-19T01:31:11;8;8;
57411;PMS5003;43247;52.828;-8.980;2023-09-19T01:32:11;5;5;
57411;PMS5003;43247;52.828;-8.980;2023-09-19T01:33:11;5;5;
57411;PMS5003;43247;52.828;-8.980;2023-09-19T01:34:11;3;2;
57411;PMS5003;43247;52.828;-8.980;2023-09-19T01:35:11;5;5;
57411;PMS5003;43247;52.828;-8.980;2023-09-19T01:36:11;6;5;
57411;PMS5003;43247;52.828;-8.980;2023-09-19T01:37:11;4;4;
57411;PMS5003;43247;52.828;-8.980;2023-09-19T01:38:12;4;4;
57411;PMS5003;43247;52.828;-8.980;2023-09-19T01:39:12;5;5;
57411;PMS5003;43247;52.828;-8.980;2023-09-19T01:40:13;5;3;
57411;PMS5003;43247;52.828;-8.980;2023-09-19T01:41:12;5;5;
57411;PMS5003;43247;52.828;-8.980;2023-09-19T01:42:13;3;3;
57411;PMS5003;43247;52.828;-8.980;2023-09-19T01:43:15;5;5;
57411;PMS5003;43247;52.828;-8.980;2023-09-19T01:44:15;4;4;
57411;PMS5003;43247;52.828;-8.980;2023-09-19T01:45:13;4;4;
57411;PMS5003;43247;52.828;-8.980;2023-09-19T01:46:14;3;3;
57411;PMS5003;43247;52.828;-8.980;2023-09-19T01:47:16;4;4;
57411;PMS5003;43247;52.828;-8.980;2023-09-19T01:48:16;3;3;
57411;PMS5003;43247;52.828;-8.980;2023-09-19T01:49:22;5;3;
57411;PMS5003;43247;52.828;-8.980;2023-09-19T01:50:17;4;4;
57411;PMS5003;43247;52.828;-8.980;2023-09-19T01:51:14;1;1;
57411;PMS5003;43247;52.828;-8.980;2023-09-19T01:52:14;3;3;
57411;PMS5003;43247;52.828;-8.980;2023-09-19T01:53:15;6;4;
57411;PMS5003;43247;52.828;-8.980;2023-09-19T01:54:16;3;3;
57411;PMS5003;43247;52.828;-8.980;2023-09-19T01:55:15;5;4;
57411;PMS5003;43247;52.828;-8.980;2023-09-19T01:56:16;3;3;
57411;PMS5003;43247;52.828;-8.980;2023-09-19T01:57:17;3;3;
57411;PMS5003;43247;52.828;-8.980;2023-09-19T01:58:16;4;2;
57411;PMS5003;43247;52.828;-8.980;2023-09-19T01:59:16;4;4;
57411;PMS5003;43247;52.828;-8.980;2023-09-19T02:00:16;2;2;
57411;PMS5003;43247;52.828;-8.980;2023-09-19T02:01:17;3;3;
57411;PMS5003;43247;52.828;-8.980;2023-09-19T02:02:16;5;4;
57411;PMS5003;43247;52.828;-8.980;2023-09-19T02:03:16;2;2;
57411;PMS5003;43247;52.828;-8.980;2023-09-19T02:04:16;1;1;
57411;PMS5003;43247;52.828;-8.980;2023-09-19T02:05:21;3;2;
57411;PMS5003;43247;52.828;-8.980;2023-09-19T02:06:17;4;3;
57411;PMS5003;43247;52.828;-8.980;2023-09-19T02:07:17;3;3;
57411;PMS5003;43247;52.828;-8.980;2023-09-19T02:08:17;4;4;
57411;PMS5003;43247;52.828;-8.980;2023-09-19T02:09:17;4;2;
57411;PMS5003;43247;52.828;-8.980;2023-09-19T02:10:17;2;2;
57411;PMS5003;43247;52.828;-8.980;2023-09-19T02:11:18;2;2;
57411;PMS5003;43247;52.828;-8.980;2023-09-19T02:12:18;3;1;
57411;PMS5003;43247;52.828;-8.980;2023-09-19T02:13:19;3;3;
57411;PMS5003;43247;52.828;-8.980;2023-09-19T02:14:18;5;4;
57411;PMS5003;43247;52.828;-8.980;2023-09-19T02:15:19;3;3;
57411;PMS5003;43247;52.828;-8.980;2023-09-19T02:16:19;4;4;
57411;PMS5003;43247;52.828;-8.980;2023-09-19T02:17:19;3;2;
57411;PMS5003;43247;52.828;-8.980;2023-09-19T02:18:19;2;2;
57411;PMS5003;43247;52.828;-8.980;2023-09-19T02:19:19;2;2;
57411;PMS5003;43247;52.828;-8.980;2023-09-19T02:20:19;2;2;
57411;PMS5003;43247;52.828;-8.980;2023-09-19T02:21:19;2;2;
57411;PMS5003;43247;52.828;-8.980;2023-09-19T02:22:20;2;1;
57411;PMS5003;43247;52.828;-8.980;2023-09-19T02:23:20;1;1;
57411;PMS5003;43247;52.828;-8.980;2023-09-19T02:24:20;1;1;
57411;PMS5003;43247;52.828;-8.980;2023-09-19T02:25:20;3;1;
57411;PMS5003;43247;52.828;-8.980;2023-09-19T02:26:20;3;3;
57411;PMS5003;43247;52.828;-8.980;2023-09-19T02:27:20;1;1;
57411;PMS5003;43247;52.828;-8.980;2023-09-19T02:28:21;0;0;
57411;PMS5003;43247;52.828;-8.980;2023-09-19T02:29:21;1;0;
57411;PMS5003;43247;52.828;-8.980;2023-09-19T02:30:21;1;0;
57411;PMS5003;43247;52.828;-8.980;2023-09-19T02:31:21;1;1;
57411;PMS5003;43247;52.828;-8.980;2023-09-19T02:32:21;1;1;
57411;PMS5003;43247;52.828;-8.980;2023-09-19T02:33:21;2;2;
57411;PMS5003;43247;52.828;-8.980;2023-09-19T02:34:22;1;1;
57411;PMS5003;43247;52.828;-8.980;2023-09-19T02:35:22;3;1;
57411;PMS5003;43247;52.828;-8.980;2023-09-19T02:36:22;0;0;
57411;PMS5003;43247;52.828;-8.980;2023-09-19T02:37:22;0;0;
57411;PMS5003;43247;52.828;-8.980;2023-09-19T02:38:22;1;1;
57411;PMS5003;43247;52.828;-8.980;2023-09-19T02:39:22;1;1;
57411;PMS5003;43247;52.828;-8.980;2023-09-19T02:40:22;1;1;
57411;PMS5003;43247;52.828;-8.980;2023-09-19T02:41:23;1;0;
57411;PMS5003;43247;52.828;-8.980;2023-09-19T02:42:23;0;0;
57411;PMS5003;43247;52.828;-8.980;2023-09-19T02:43:23;1;1;
57411;PMS5003;43247;52.828;-8.980;2023-09-19T02:44:23;1;1;
57411;PMS5003;43247;52.828;-8.980;2023-09-19T02:45:23;0;0;
57411;PMS5003;43247;52.828;-8.980;2023-09-19T02:46:23;0;0;
57411;PMS5003;43247;52.828;-8.980;2023-09-19T02:47:23;0;0;
57411;PMS5003;43247;52.828;-8.980;2023-09-19T02:48:24;0;0;
57411;PMS5003;43247;52.828;-8.980;2023-09-19T02:49:24;0;0;
57411;PMS5003;43247;52.828;-8.980;2023-09-19T02:50:24;0;0;
57411;PMS5003;43247;52.828;-8.980;2023-09-19T02:51:24;0;0;
57411;PMS5003;43247;52.828;-8.980;2023-09-19T02:52:24;0;0;
57411;PMS5003;43247;52.828;-8.980;2023-09-19T02:53:24;0;0;
57411;PMS5003;43247;52.828;-8.980;2023-09-19T02:54:25;0;0;
57411;PMS5003;43247;52.828;-8.980;2023-09-19T02:55:25;0;0;
57411;PMS5003;43247;52.828;-8.980;2023-09-19T02:56:25;1;0;
57411;PMS5003;43247;52.828;-8.980;2023-09-19T02:57:25;0;0;
57411;PMS5003;43247;52.828;-8.980;2023-09-19T02:58:25;1;1;
57411;PMS5003;43247;52.828;-8.980;2023-09-19T02:59:25;0;0;
57411;PMS5003;43247;52.828;-8.980;2023-09-19T03:00:25;0;0;
57411;PMS5003;43247;52.828;-8.980;2023-09-19T03:01:26;0;0;
57411;PMS5003;43247;52.828;-8.980;2023-09-19T03:02:26;0;0;
57411;PMS5003;43247;52.828;-8.980;2023-09-19T03:03:26;0;0;
57411;PMS5003;43247;52.828;-8.980;2023-09-19T03:04:26;0;0;
57411;PMS5003;43247;52.828;-8.980;2023-09-19T03:05:26;0;0;
57411;PMS5003;43247;52.828;-8.980;2023-09-19T03:06:26;0;0;
57411;PMS5003;43247;52.828;-8.980;2023-09-19T03:07:26;0;0;
57411;PMS5003;43247;52.828;-8.980;2023-09-19T03:08:27;0;0;
57411;PMS5003;43247;52.828;-8.980;2023-09-19T03:09:27;0;0;
57411;PMS5003;43247;52.828;-8.980;2023-09-19T03:10:27;0;0;
57411;PMS5003;43247;52.828;-8.980;2023-09-19T03:11:27;0;0;
57411;PMS5003;43247;52.828;-8.980;2023-09-19T03:12:27;0;0;
57411;PMS5003;43247;52.828;-8.980;2023-09-19T03:13:27;2;0;
57411;PMS5003;43247;52.828;-8.980;2023-09-19T03:14:27;0;0;
57411;PMS5003;43247;52.828;-8.980;2023-09-19T03:15:28;0;0;
57411;PMS5003;43247;52.828;-8.980;2023-09-19T03:16:28;0;0;
57411;PMS5003;43247;52.828;-8.980;2023-09-19T03:17:28;0;0;
57411;PMS5003;43247;52.828;-8.980;2023-09-19T03:18:28;1;1;
57411;PMS5003;43247;52.828;-8.980;2023-09-19T03:19:28;0;0;
57411;PMS5003;43247;52.828;-8.980;2023-09-19T03:20:29;0;0;
57411;PMS5003;43247;52.828;-8.980;2023-09-19T03:21:28;0;0;
57411;PMS5003;43247;52.828;-8.980;2023-09-19T03:22:29;0;0;
57411;PMS5003;43247;52.828;-8.980;2023-09-19T03:23:29;0;0;
57411;PMS5003;43247;52.828;-8.980;2023-09-19T03:24:29;0;0;
57411;PMS5003;43247;52.828;-8.980;2023-09-19T03:25:29;1;0;
57411;PMS5003;43247;52.828;-8.980;2023-09-19T03:26:29;0;0;
57411;PMS5003;43247;52.828;-8.980;2023-09-19T03:27:29;0;0;
57411;PMS5003;43247;52.828;-8.980;2023-09-19T03:28:32;0;0;
57411;PMS5003;43247;52.828;-8.980;2023-09-19T03:29:30;0;0;
57411;PMS5003;43247;52.828;-8.980;2023-09-19T03:30:30;1;1;
57411;PMS5003;43247;52.828;-8.980;2023-09-19T03:31:30;1;0;
57411;PMS5003;43247;52.828;-8.980;2023-09-19T03:32:30;0;0;
57411;PMS5003;43247;52.828;-8.980;2023-09-19T03:33:30;0;0;
57411;PMS5003;43247;52.828;-8.980;2023-09-19T03:34:30;1;1;
57411;PMS5003;43247;52.828;-8.980;2023-09-19T03:35:31;0;0;
57411;PMS5003;43247;52.828;-8.980;2023-09-19T03:36:31;0;0;
57411;PMS5003;43247;52.828;-8.980;2023-09-19T03:37:31;0;0;
57411;PMS5003;43247;52.828;-8.980;2023-09-19T03:38:31;2;1;
57411;PMS5003;43247;52.828;-8.980;2023-09-19T03:39:31;0;0;
57411;PMS5003;43247;52.828;-8.980;2023-09-19T03:40:31;1;0;
57411;PMS5003;43247;52.828;-8.980;2023-09-19T03:41:31;0;0;
57411;PMS5003;43247;52.828;-8.980;2023-09-19T03:42:32;0;0;
57411;PMS5003;43247;52.828;-8.980;2023-09-19T03:43:32;0;0;
57411;PMS5003;43247;52.828;-8.980;2023-09-19T03:44:32;0;0;
57411;PMS5003;43247;52.828;-8.980;2023-09-19T03:45:33;0;0;
57411;PMS5003;43247;52.828;-8.980;2023-09-19T03:46:32;0;0;
57411;PMS5003;43247;52.828;-8.980;2023-09-19T03:47:32;0;0;
57411;PMS5003;43247;52.828;-8.980;2023-09-19T03:48:32;0;0;
57411;PMS5003;43247;52.828;-8.980;2023-09-19T03:49:33;0;0;
57411;PMS5003;43247;52.828;-8.980;2023-09-19T03:50:33;1;1;
57411;PMS5003;43247;52.828;-8.980;2023-09-19T03:51:33;0;0;
57411;PMS5003;43247;52.828;-8.980;2023-09-19T03:52:33;0;0;
57411;PMS5003;43247;52.828;-8.980;2023-09-19T03:53:33;1;0;
57411;PMS5003;43247;52.828;-8.980;2023-09-19T03:54:33;1;1;
57411;PMS5003;43247;52.828;-8.980;2023-09-19T03:55:33;0;0;
57411;PMS5003;43247;52.828;-8.980;2023-09-19T03:56:34;0;0;
57411;PMS5003;43247;52.828;-8.980;2023-09-19T03:57:34;0;0;
57411;PMS5003;43247;52.828;-8.980;2023-09-19T03:58:34;0;0;
57411;PMS5003;43247;52.828;-8.980;2023-09-19T03:59:34;0;0;
57411;PMS5003;43247;52.828;-8.980;2023-09-19T04:00:34;1;0;
57411;PMS5003;43247;52.828;-8.980;2023-09-19T04:01:34;1;1;
57411;PMS5003;43247;52.828;-8.980;2023-09-19T04:02:34;1;0;
57411;PMS5003;43247;52.828;-8.980;2023-09-19T04:03:35;0;0;
57411;PMS5003;43247;52.828;-8.980;2023-09-19T04:04:35;0;0;
57411;PMS5003;43247;52.828;-8.980;2023-09-19T04:05:35;1;1;
57411;PMS5003;43247;52.828;-8.980;2023-09-19T04:06:35;3;1;
57411;PMS5003;43247;52.828;-8.980;2023-09-19T04:07:35;0;0;
57411;PMS5003;43247;52.828;-8.980;2023-09-19T04:08:35;1;1;
57411;PMS5003;43247;52.828;-8.980;2023-09-19T04:09:35;0;0;
57411;PMS5003;43247;52.828;-8.980;2023-09-19T04:10:36;0;0;
57411;PMS5003;43247;52.828;-8.980;2023-09-19T04:11:36;0;0;
57411;PMS5003;43247;52.828;-8.980;2023-09-19T04:12:36;0;0;
57411;PMS5003;43247;52.828;-8.980;2023-09-19T04:13:36;0;0;
57411;PMS5003;43247;52.828;-8.980;2023-09-19T04:14:36;0;0;
57411;PMS5003;43247;52.828;-8.980;2023-09-19T04:15:36;0;0;
57411;PMS5003;43247;52.828;-8.980;2023-09-19T04:16:36;0;0;
57411;PMS5003;43247;52.828;-8.980;2023-09-19T04:17:37;0;0;
57411;PMS5003;43247;52.828;-8.980;2023-09-19T04:18:37;0;0;
57411;PMS5003;43247;52.828;-8.980;2023-09-19T04:19:37;0;0;
57411;PMS5003;43247;52.828;-8.980;2023-09-19T04:20:37;0;0;
57411;PMS5003;43247;52.828;-8.980;2023-09-19T04:21:37;0;0;
57411;PMS5003;43247;52.828;-8.980;2023-09-19T04:22:37;0;0;
57411;PMS5003;43247;52.828;-8.980;2023-09-19T04:23:38;0;0;
57411;PMS5003;43247;52.828;-8.980;2023-09-19T04:24:38;0;0;
57411;PMS5003;43247;52.828;-8.980;2023-09-19T04:25:38;1;1;
57411;PMS5003;43247;52.828;-8.980;2023-09-19T04:26:38;0;0;
57411;PMS5003;43247;52.828;-8.980;2023-09-19T04:27:38;0;0;
57411;PMS5003;43247;52.828;-8.980;2023-09-19T04:28:38;0;0;
57411;PMS5003;43247;52.828;-8.980;2023-09-19T04:29:38;1;0;
57411;PMS5003;43247;52.828;-8.980;2023-09-19T04:30:38;0;0;
57411;PMS5003;43247;52.828;-8.980;2023-09-19T04:31:39;0;0;
57411;PMS5003;43247;52.828;-8.980;2023-09-19T04:32:39;0;0;
57411;PMS5003;43247;52.828;-8.980;2023-09-19T04:33:39;0;0;
57411;PMS5003;43247;52.828;-8.980;2023-09-19T04:34:39;0;0;
57411;PMS5003;43247;52.828;-8.980;2023-09-19T04:35:39;0;0;
57411;PMS5003;43247;52.828;-8.980;2023-09-19T04:36:39;1;1;
57411;PMS5003;43247;52.828;-8.980;2023-09-19T04:37:40;0;0;
57411;PMS5003;43247;52.828;-8.980;2023-09-19T04:38:40;0;0;
57411;PMS5003;43247;52.828;-8.980;2023-09-19T04:39:40;0;0;
57411;PMS5003;43247;52.828;-8.980;2023-09-19T04:40:40;0;0;
57411;PMS5003;43247;52.828;-8.980;2023-09-19T04:41:40;0;0;
57411;PMS5003;43247;52.828;-8.980;2023-09-19T04:42:40;2;1;
57411;PMS5003;43247;52.828;-8.980;2023-09-19T04:43:40;1;1;
57411;PMS5003;43247;52.828;-8.980;2023-09-19T04:44:40;0;0;
57411;PMS5003;43247;52.828;-8.980;2023-09-19T04:45:41;0;0;
57411;PMS5003;43247;52.828;-8.980;2023-09-19T04:46:41;0;0;
57411;PMS5003;43247;52.828;-8.980;2023-09-19T04:47:41;0;0;
57411;PMS5003;43247;52.828;-8.980;2023-09-19T04:48:41;0;0;
57411;PMS5003;43247;52.828;-8.980;2023-09-19T04:49:41;0;0;
57411;PMS5003;43247;52.828;-8.980;2023-09-19T04:50:41;0;0;
57411;PMS5003;43247;52.828;-8.980;2023-09-19T04:51:41;1;0;
57411;PMS5003;43247;52.828;-8.980;2023-09-19T04:52:42;0;0;
57411;PMS5003;43247;52.828;-8.980;2023-09-19T04:53:42;0;0;
57411;PMS5003;43247;52.828;-8.980;2023-09-19T04:54:42;0;0;
57411;PMS5003;43247;52.828;-8.980;2023-09-19T04:55:42;1;0;
57411;PMS5003;43247;52.828;-8.980;2023-09-19T04:56:42;0;0;
57411;PMS5003;43247;52.828;-8.980;2023-09-19T04:57:43;0;0;
57411;PMS5003;43247;52.828;-8.980;2023-09-19T04:58:43;0;0;
57411;PMS5003;43247;52.828;-8.980;2023-09-19T04:59:43;0;0;
57411;PMS5003;43247;52.828;-8.980;2023-09-19T05:00:43;0;0;
57411;PMS5003;43247;52.828;-8.980;2023-09-19T05:01:43;0;0;
57411;PMS5003;43247;52.828;-8.980;2023-09-19T05:02:43;0;0;
57411;PMS5003;43247;52.828;-8.980;2023-09-19T05:03:43;0;0;
57411;PMS5003;43247;52.828;-8.980;2023-09-19T05:04:43;0;0;
57411;PMS5003;43247;52.828;-8.980;2023-09-19T05:05:44;0;0;
57411;PMS5003;43247;52.828;-8.980;2023-09-19T05:06:44;0;0;
57411;PMS5003;43247;52.828;-8.980;2023-09-19T05:07:44;0;0;
57411;PMS5003;43247;52.828;-8.980;2023-09-19T05:08:44;0;0;
57411;PMS5003;43247;52.828;-8.980;2023-09-19T05:09:44;2;1;
57411;PMS5003;43247;52.828;-8.980;2023-09-19T05:10:44;2;1;
57411;PMS5003;43247;52.828;-8.980;2023-09-19T05:11:44;0;0;
57411;PMS5003;43247;52.828;-8.980;2023-09-19T05:12:44;0;0;
57411;PMS5003;43247;52.828;-8.980;2023-09-19T05:13:45;1;0;
57411;PMS5003;43247;52.828;-8.980;2023-09-19T05:14:45;1;1;
57411;PMS5003;43247;52.828;-8.980;2023-09-19T05:15:45;0;0;
57411;PMS5003;43247;52.828;-8.980;2023-09-19T05:16:45;3;1;
57411;PMS5003;43247;52.828;-8.980;2023-09-19T05:17:47;1;0;
57411;PMS5003;43247;52.828;-8.980;2023-09-19T05:18:45;0;0;
57411;PMS5003;43247;52.828;-8.980;2023-09-19T05:19:45;0;0;
57411;PMS5003;43247;52.828;-8.980;2023-09-19T05:20:46;1;1;
57411;PMS5003;43247;52.828;-8.980;2023-09-19T05:21:46;0;0;
57411;PMS5003;43247;52.828;-8.980;2023-09-19T05:22:46;2;1;
57411;PMS5003;43247;52.828;-8.980;2023-09-19T05:23:46;0;0;
57411;PMS5003;43247;52.828;-8.980;2023-09-19T05:24:46;0;0;
57411;PMS5003;43247;52.828;-8.980;2023-09-19T05:25:46;1;0;
57411;PMS5003;43247;52.828;-8.980;2023-09-19T05:26:47;1;1;
57411;PMS5003;43247;52.828;-8.980;2023-09-19T05:27:46;2;0;
57411;PMS5003;43247;52.828;-8.980;2023-09-19T05:28:47;0;0;
57411;PMS5003;43247;52.828;-8.980;2023-09-19T05:29:47;0;0;
57411;PMS5003;43247;52.828;-8.980;2023-09-19T05:30:47;0;0;
57411;PMS5003;43247;52.828;-8.980;2023-09-19T05:31:47;0;0;
57411;PMS5003;43247;52.828;-8.980;2023-09-19T05:32:47;0;0;
57411;PMS5003;43247;52.828;-8.980;2023-09-19T05:33:47;1;1;
57411;PMS5003;43247;52.828;-8.980;2023-09-19T05:34:48;0;0;
57411;PMS5003;43247;52.828;-8.980;2023-09-19T05:35:48;1;1;
57411;PMS5003;43247;52.828;-8.980;2023-09-19T05:36:48;0;0;
57411;PMS5003;43247;52.828;-8.980;2023-09-19T05:37:48;0;0;
57411;PMS5003;43247;52.828;-8.980;2023-09-19T05:38:48;0;0;
57411;PMS5003;43247;52.828;-8.980;2023-09-19T05:39:48;1;1;
57411;PMS5003;43247;52.828;-8.980;2023-09-19T05:40:48;0;0;
57411;PMS5003;43247;52.828;-8.980;2023-09-19T05:41:49;3;0;
57411;PMS5003;43247;52.828;-8.980;2023-09-19T05:42:49;2;2;
57411;PMS5003;43247;52.828;-8.980;2023-09-19T05:43:49;0;0;
57411;PMS5003;43247;52.828;-8.980;2023-09-19T05:44:49;0;0;
57411;PMS5003;43247;52.828;-8.980;2023-09-19T05:45:49;1;0;
57411;PMS5003;43247;52.828;-8.980;2023-09-19T05:46:49;3;1;
57411;PMS5003;43247;52.828;-8.980;2023-09-19T05:47:49;2;1;
57411;PMS5003;43247;52.828;-8.980;2023-09-19T05:48:50;0;0;
57411;PMS5003;43247;52.828;-8.980;2023-09-19T05:49:50;1;0;
57411;PMS5003;43247;52.828;-8.980;2023-09-19T05:50:50;0;0;
57411;PMS5003;43247;52.828;-8.980;2023-09-19T05:51:50;0;0;
57411;PMS5003;43247;52.828;-8.980;2023-09-19T05:52:51;0;0;
57411;PMS5003;43247;52.828;-8.980;2023-09-19T05:53:50;1;1;
57411;PMS5003;43247;52.828;-8.980;2023-09-19T05:54:50;0;0;
57411;PMS5003;43247;52.828;-8.980;2023-09-19T05:55:51;0;0;
57411;PMS5003;43247;52.828;-8.980;2023-09-19T05:56:51;0;0;
57411;PMS5003;43247;52.828;-8.980;2023-09-19T05:57:51;1;0;
57411;PMS5003;43247;52.828;-8.980;2023-09-19T05:58:51;0;0;
57411;PMS5003;43247;52.828;-8.980;2023-09-19T05:59:51;1;0;
57411;PMS5003;43247;52.828;-8.980;2023-09-19T06:00:51;3;2;
57411;PMS5003;43247;52.828;-8.980;2023-09-19T06:01:51;1;1;
57411;PMS5003;43247;52.828;-8.980;2023-09-19T06:02:52;0;0;
57411;PMS5003;43247;52.828;-8.980;2023-09-19T06:03:52;2;2;
57411;PMS5003;43247;52.828;-8.980;2023-09-19T06:04:52;1;0;
57411;PMS5003;43247;52.828;-8.980;2023-09-19T06:05:52;1;1;
57411;PMS5003;43247;52.828;-8.980;2023-09-19T06:06:52;1;1;
57411;PMS5003;43247;52.828;-8.980;2023-09-19T06:07:52;0;0;
57411;PMS5003;43247;52.828;-8.980;2023-09-19T06:08:52;1;1;
57411;PMS5003;43247;52.828;-8.980;2023-09-19T06:09:52;1;1;
57411;PMS5003;43247;52.828;-8.980;2023-09-19T06:10:53;1;0;
57411;PMS5003;43247;52.828;-8.980;2023-09-19T06:11:53;1;1;
57411;PMS5003;43247;52.828;-8.980;2023-09-19T06:12:53;0;0;
57411;PMS5003;43247;52.828;-8.980;2023-09-19T06:13:53;1;1;
57411;PMS5003;43247;52.828;-8.980;2023-09-19T06:14:53;0;0;
57411;PMS5003;43247;52.828;-8.980;2023-09-19T06:15:54;1;1;
57411;PMS5003;43247;52.828;-8.980;2023-09-19T06:16:53;2;2;
57411;PMS5003;43247;52.828;-8.980;2023-09-19T06:17:54;0;0;
57411;PMS5003;43247;52.828;-8.980;2023-09-19T06:18:54;0;0;
57411;PMS5003;43247;52.828;-8.980;2023-09-19T06:19:54;1;1;
57411;PMS5003;43247;52.828;-8.980;2023-09-19T06:20:54;2;2;
57411;PMS5003;43247;52.828;-8.980;2023-09-19T06:21:54;0;0;
57411;PMS5003;43247;52.828;-8.980;2023-09-19T06:22:54;1;1;
57411;PMS5003;43247;52.828;-8.980;2023-09-19T06:23:54;1;1;
57411;PMS5003;43247;52.828;-8.980;2023-09-19T06:24:55;0;0;
57411;PMS5003;43247;52.828;-8.980;2023-09-19T06:25:55;0;0;
57411;PMS5003;43247;52.828;-8.980;2023-09-19T06:26:55;0;0;
57411;PMS5003;43247;52.828;-8.980;2023-09-19T06:27:55;1;0;
57411;PMS5003;43247;52.828;-8.980;2023-09-19T06:28:56;2;2;
57411;PMS5003;43247;52.828;-8.980;2023-09-19T06:29:56;1;1;
57411;PMS5003;43247;52.828;-8.980;2023-09-19T06:30:56;2;2;
57411;PMS5003;43247;52.828;-8.980;2023-09-19T06:31:56;0;0;
57411;PMS5003;43247;52.828;-8.980;2023-09-19T06:32:57;0;0;
57411;PMS5003;43247;52.828;-8.980;2023-09-19T06:33:56;1;0;
57411;PMS5003;43247;52.828;-8.980;2023-09-19T06:34:57;1;1;
57411;PMS5003;43247;52.828;-8.980;2023-09-19T06:35:57;0;0;
57411;PMS5003;43247;52.828;-8.980;2023-09-19T06:36:57;0;0;
57411;PMS5003;43247;52.828;-8.980;2023-09-19T06:37:57;1;1;
57411;PMS5003;43247;52.828;-8.980;2023-09-19T06:38:57;0;0;
57411;PMS5003;43247;52.828;-8.980;2023-09-19T06:39:57;1;1;
57411;PMS5003;43247;52.828;-8.980;2023-09-19T06:40:58;1;1;
57411;PMS5003;43247;52.828;-8.980;2023-09-19T06:41:57;1;1;
57411;PMS5003;43247;52.828;-8.980;2023-09-19T06:42:58;0;0;
57411;PMS5003;43247;52.828;-8.980;2023-09-19T06:43:58;1;1;
57411;PMS5003;43247;52.828;-8.980;2023-09-19T06:44:58;1;1;
57411;PMS5003;43247;52.828;-8.980;2023-09-19T06:45:58;1;1;
57411;PMS5003;43247;52.828;-8.980;2023-09-19T06:46:58;0;0;
57411;PMS5003;43247;52.828;-8.980;2023-09-19T06:47:58;1;0;
57411;PMS5003;43247;52.828;-8.980;2023-09-19T06:48:58;0;0;